Time;durP1;ratioP1;P1;durP2;ratioP2;P2;SDS_P1;SDS_P2;PMS_P1;PMS_P2;Temp;Humidity;BMP_temperature;BMP_pressure;BME280_temperature;BME280_humidity;BME280_pressure;Samples;Min_cycle;Max_cycle;Signal;HPM_P1;HPM_P2
2021/06/26 00:02:19;;;;;;;17.13;9.75;;;;;;;;;;4996928;28;20014;-65
2021/06/26 00:04:45;;;;;;;19.00;8.82;;;;;;;;;;4991584;28;20125;-65
2021/06/26 00:07:11;;;;;;;15.77;9.68;;;;;;;;;;4994578;28;20026;-65
2021/06/26 00:09:37;;;;;;;14.25;9.18;;;;;;;;;;5002365;28;20026;-65
2021/06/26 00:12:03;;;;;;;14.07;10.07;;;;;;;;;;4989776;28;20057;-65
2021/06/26 00:14:29;;;;;;;15.85;9.50;;;;;;;;;;5009621;28;20068;-65
2021/06/26 00:16:55;;;;;;;14.90;9.57;;;;;;;;;;4999754;28;20386;-65
2021/06/26 00:19:21;;;;;;;17.58;11.40;;;;;;;;;;4999242;28;20405;-65
2021/06/26 00:21:47;;;;;;;17.20;11.35;;;;;;;;;;4996890;28;20113;-65
2021/06/26 00:24:13;;;;;;;18.38;10.40;;;;;;;;;;4990434;28;20084;-65
2021/06/26 00:26:39;;;;;;;19.65;13.57;;;;;;;;;;4990029;28;20042;-65
2021/06/26 00:29:05;;;;;;;17.13;12.65;;;;;;;;;;5000104;28;20030;-65
2021/06/26 00:31:32;;;;;;;21.30;14.57;;;;;;;;;;4996066;28;20116;-65
2021/06/26 00:33:58;;;;;;;24.38;15.32;;;;;;;;;;4988538;28;20031;-65
2021/06/26 00:36:24;;;;;;;25.75;15.95;;;;;;;;;;4987644;28;20049;-65
2021/06/26 00:38:50;;;;;;;25.10;17.05;;;;;;;;;;4980040;28;20078;-65
2021/06/26 00:41:16;;;;;;;26.65;15.60;;;;;;;;;;4981736;28;20476;-65
2021/06/26 00:43:42;;;;;;;24.42;15.25;;;;;;;;;;5005076;28;20030;-65
2021/06/26 00:46:08;;;;;;;20.73;15.07;;;;;;;;;;4982842;28;20492;-65
2021/06/26 00:48:34;;;;;;;22.77;14.70;;;;;;;;;;4989230;28;20035;-65
2021/06/26 00:51:00;;;;;;;22.08;16.42;;;;;;;;;;4989630;28;20117;-65
2021/06/26 00:53:27;;;;;;;24.15;16.00;;;;;;;;;;4988677;28;20504;-65
2021/06/26 00:55:53;;;;;;;23.08;16.27;;;;;;;;;;4994029;28;20092;-65
2021/06/26 00:58:23;;;;;;;26.23;16.35;;;;;;;;;;4990384;28;20515;-65
2021/06/26 01:00:49;;;;;;;24.90;16.92;;;;;;;;;;4996219;28;20025;-65
2021/06/26 01:03:15;;;;;;;23.27;15.93;;;;;;;;;;4991514;28;20504;-65
2021/06/26 01:05:41;;;;;;;21.90;15.20;;;;;;;;;;4989752;28;20033;-65
2021/06/26 01:08:07;;;;;;;22.55;15.55;;;;;;;;;;4988389;28;20037;-65
2021/06/26 01:10:34;;;;;;;22.73;16.48;;;;;;;;;;4990040;28;20039;-65
2021/06/26 01:13:00;;;;;;;23.30;17.52;;;;;;;;;;4994095;28;20095;-66
2021/06/26 01:15:26;;;;;;;25.73;18.25;;;;;;;;;;5000205;28;20027;-65
2021/06/26 01:17:52;;;;;;;26.50;18.67;;;;;;;;;;4990451;28;20069;-65
2021/06/26 01:20:18;;;;;;;29.23;20.58;;;;;;;;;;4990644;28;20045;-65
2021/06/26 01:22:47;;;;;;;28.77;20.27;;;;;;;;;;4993415;28;20117;-65
2021/06/26 01:25:14;;;;;;;31.92;19.75;;;;;;;;;;5000756;28;20050;-65
2021/06/26 01:27:41;;;;;;;27.50;20.42;;;;;;;;;;5000361;28;20045;-66
2021/06/26 01:30:07;;;;;;;30.98;21.33;;;;;;;;;;5004574;28;20026;-65
2021/06/26 01:32:33;;;;;;;34.30;22.20;;;;;;;;;;4986323;28;20523;-66
2021/06/26 01:34:59;;;;;;;33.22;20.75;;;;;;;;;;4996429;28;20527;-65
2021/06/26 01:37:25;;;;;;;29.67;20.50;;;;;;;;;;4977999;28;20395;-65
2021/06/26 01:39:51;;;;;;;36.25;21.98;;;;;;;;;;4992104;28;20119;-66
2021/06/26 01:42:17;;;;;;;34.15;22.17;;;;;;;;;;4987725;28;20105;-66
2021/06/26 01:44:43;;;;;;;39.97;22.38;;;;;;;;;;4988942;28;20069;-65
2021/06/26 01:47:10;;;;;;;30.15;21.90;;;;;;;;;;4987362;28;20481;-66
2021/06/26 01:49:39;;;;;;;33.28;23.52;;;;;;;;;;4989668;28;20042;-66
2021/06/26 01:52:07;;;;;;;42.78;25.52;;;;;;;;;;5000936;28;20034;-65
2021/06/26 01:54:33;;;;;;;34.65;23.65;;;;;;;;;;4996339;28;20034;-66
2021/06/26 01:56:59;;;;;;;31.33;22.58;;;;;;;;;;4996244;28;20030;-66
2021/06/26 01:59:25;;;;;;;32.40;22.42;;;;;;;;;;4988196;28;20018;-65
2021/06/26 02:01:52;;;;;;;29.55;20.20;;;;;;;;;;4987584;28;20599;-66
2021/06/26 02:04:18;;;;;;;31.52;21.45;;;;;;;;;;4988594;28;20030;-66
2021/06/26 02:06:44;;;;;;;34.25;22.33;;;;;;;;;;4995853;28;20441;-66
2021/06/26 02:09:10;;;;;;;31.80;20.58;;;;;;;;;;4988630;28;20022;-65
2021/06/26 02:11:36;;;;;;;38.85;21.73;;;;;;;;;;4987184;28;20026;-65
2021/06/26 02:14:03;;;;;;;27.23;19.27;;;;;;;;;;4988621;28;20524;-66
2021/06/26 02:16:29;;;;;;;31.65;20.80;;;;;;;;;;4988648;28;20102;-66
2021/06/26 02:18:55;;;;;;;28.92;18.20;;;;;;;;;;4989405;28;20458;-65
2021/06/26 02:21:21;;;;;;;30.63;19.52;;;;;;;;;;4997461;28;20022;-65
2021/06/26 02:23:47;;;;;;;28.95;18.77;;;;;;;;;;4994640;28;20493;-65
2021/06/26 02:26:13;;;;;;;31.73;18.50;;;;;;;;;;4995081;28;20026;-66
2021/06/26 02:28:39;;;;;;;29.58;19.85;;;;;;;;;;4993822;28;20444;-66
2021/06/26 02:31:05;;;;;;;28.77;20.25;;;;;;;;;;5001446;28;20404;-66
2021/06/26 02:33:31;;;;;;;28.50;20.10;;;;;;;;;;5006288;28;20497;-65
2021/06/26 02:35:57;;;;;;;31.92;20.60;;;;;;;;;;4999831;28;20046;-66
2021/06/26 02:38:23;;;;;;;32.65;20.02;;;;;;;;;;4992533;28;20049;-66
2021/06/26 02:40:49;;;;;;;28.50;18.45;;;;;;;;;;4987036;28;20511;-65
2021/06/26 02:43:15;;;;;;;28.70;19.08;;;;;;;;;;4992880;28;20049;-65
2021/06/26 02:45:41;;;;;;;29.95;18.83;;;;;;;;;;4992580;28;20022;-65
2021/06/26 02:48:08;;;;;;;28.98;18.80;;;;;;;;;;4994446;28;20050;-66
2021/06/26 02:50:34;;;;;;;28.58;19.77;;;;;;;;;;4994469;28;20105;-66
2021/06/26 02:53:00;;;;;;;26.13;18.13;;;;;;;;;;4999691;28;20602;-65
2021/06/26 02:55:26;;;;;;;33.35;21.27;;;;;;;;;;5011562;28;20041;-66
2021/06/26 02:57:52;;;;;;;29.88;20.10;;;;;;;;;;4998692;28;20478;-65
2021/06/26 03:00:18;;;;;;;41.30;22.63;;;;;;;;;;4998516;28;20037;-65
2021/06/26 03:02:44;;;;;;;39.63;25.30;;;;;;;;;;4979981;28;20042;-65
2021/06/26 03:05:10;;;;;;;37.30;22.25;;;;;;;;;;5001752;28;20413;-65
2021/06/26 03:07:36;;;;;;;34.85;23.13;;;;;;;;;;5001074;28;20036;-65
2021/06/26 03:10:03;;;;;;;36.67;20.77;;;;;;;;;;4998254;28;20117;-65
2021/06/26 03:12:29;;;;;;;34.85;22.77;;;;;;;;;;5009192;28;20080;-66
2021/06/26 03:14:55;;;;;;;30.83;20.58;;;;;;;;;;4992335;28;20087;-65
2021/06/26 03:17:21;;;;;;;33.85;21.85;;;;;;;;;;4993452;28;20019;-65
2021/06/26 03:19:48;;;;;;;41.15;22.25;;;;;;;;;;4996493;28;20033;-65
2021/06/26 03:22:14;;;;;;;35.58;21.63;;;;;;;;;;5005022;28;20424;-65
2021/06/26 03:24:40;;;;;;;32.58;20.52;;;;;;;;;;4996144;28;20519;-66
2021/06/26 03:27:06;;;;;;;28.98;19.33;;;;;;;;;;5004446;28;20492;-65
2021/06/26 03:29:32;;;;;;;31.95;19.25;;;;;;;;;;4995275;28;20019;-65
2021/06/26 03:31:58;;;;;;;32.05;19.73;;;;;;;;;;4990050;28;20041;-65
2021/06/26 03:34:24;;;;;;;32.45;19.52;;;;;;;;;;4989343;28;20045;-65
2021/06/26 03:36:50;;;;;;;38.55;21.17;;;;;;;;;;4986832;28;20047;-65
2021/06/26 03:39:16;;;;;;;35.55;22.60;;;;;;;;;;4978239;28;20023;-65
2021/06/26 03:41:42;;;;;;;34.85;21.70;;;;;;;;;;4993672;28;20084;-65
2021/06/26 03:44:09;;;;;;;29.88;19.08;;;;;;;;;;4990363;28;20026;-66
2021/06/26 03:46:36;;;;;;;26.35;18.23;;;;;;;;;;4994826;28;20026;-65
2021/06/26 03:49:03;;;;;;;32.95;19.17;;;;;;;;;;4985898;28;20022;-65
2021/06/26 03:51:29;;;;;;;37.55;22.27;;;;;;;;;;5000026;28;20037;-65
2021/06/26 03:53:55;;;;;;;33.53;20.52;;;;;;;;;;5002184;28;20022;-65
2021/06/26 03:56:21;;;;;;;33.80;20.80;;;;;;;;;;4991840;28;20027;-65
2021/06/26 03:58:47;;;;;;;30.88;17.80;;;;;;;;;;4997336;28;20474;-65
2021/06/26 04:01:14;;;;;;;31.52;20.20;;;;;;;;;;4990000;28;20027;-65
2021/06/26 04:03:40;;;;;;;33.97;22.45;;;;;;;;;;4996535;28;20152;-65
2021/06/26 04:06:06;;;;;;;40.13;22.75;;;;;;;;;;4989605;28;20401;-65
2021/06/26 04:08:32;;;;;;;37.55;22.60;;;;;;;;;;4989867;28;20378;-65
2021/06/26 04:10:58;;;;;;;36.28;21.98;;;;;;;;;;4988406;28;20030;-65
2021/06/26 04:13:24;;;;;;;28.52;18.92;;;;;;;;;;4989882;28;20022;-66
2021/06/26 04:15:50;;;;;;;29.20;18.10;;;;;;;;;;4989832;28;20058;-66
2021/06/26 04:18:16;;;;;;;38.00;22.90;;;;;;;;;;4989500;28;20075;-68
2021/06/26 04:20:42;;;;;;;33.13;21.98;;;;;;;;;;4992383;28;20038;-68
2021/06/26 04:23:09;;;;;;;34.13;22.25;;;;;;;;;;4988876;28;20023;-68
2021/06/26 04:25:35;;;;;;;35.97;21.67;;;;;;;;;;4989994;28;20030;-67
2021/06/26 04:28:11;;;;;;;38.00;23.13;;;;;;;;;;4990101;28;20069;-67
2021/06/26 04:30:37;;;;;;;33.95;20.83;;;;;;;;;;4986100;28;20613;-67
2021/06/26 04:33:04;;;;;;;35.10;20.95;;;;;;;;;;4994492;28;20019;-66
2021/06/26 04:35:30;;;;;;;34.50;20.42;;;;;;;;;;4990985;28;20030;-66
2021/06/26 04:37:57;;;;;;;29.48;20.38;;;;;;;;;;5009112;28;20045;-66
2021/06/26 04:40:23;;;;;;;31.60;20.15;;;;;;;;;;4999644;28;20018;-66
2021/06/26 04:42:49;;;;;;;37.42;22.25;;;;;;;;;;4988714;28;20066;-66
2021/06/26 04:45:16;;;;;;;33.65;21.27;;;;;;;;;;4987620;28;20034;-66
2021/06/26 04:47:42;;;;;;;32.90;21.75;;;;;;;;;;4988356;28;20025;-66
2021/06/26 04:50:09;;;;;;;31.80;21.38;;;;;;;;;;4990986;28;20043;-66
2021/06/26 04:52:35;;;;;;;32.33;21.42;;;;;;;;;;5006300;28;20029;-66
2021/06/26 04:55:02;;;;;;;31.33;20.35;;;;;;;;;;5016804;28;20024;-66
2021/06/26 04:57:29;;;;;;;36.50;20.63;;;;;;;;;;4994081;28;20109;-66
2021/06/26 04:59:55;;;;;;;30.30;19.58;;;;;;;;;;5000672;28;20023;-66
2021/06/26 05:02:21;;;;;;;33.85;21.50;;;;;;;;;;4983016;28;20559;-66
2021/06/26 05:04:47;;;;;;;42.80;22.40;;;;;;;;;;4980836;28;20516;-66
2021/06/26 05:07:13;;;;;;;39.35;22.95;;;;;;;;;;4988455;28;20018;-66
2021/06/26 05:09:39;;;;;;;33.53;22.98;;;;;;;;;;4985009;28;20497;-65
2021/06/26 05:12:06;;;;;;;29.48;19.98;;;;;;;;;;4980678;28;20485;-66
2021/06/26 05:14:32;;;;;;;39.78;23.10;;;;;;;;;;4972786;28;20035;-66
2021/06/26 05:16:58;;;;;;;29.42;21.02;;;;;;;;;;4984808;28;20031;-66
2021/06/26 05:19:24;;;;;;;28.85;17.95;;;;;;;;;;4969314;28;20030;-67
2021/06/26 05:21:50;;;;;;;26.95;18.13;;;;;;;;;;4981541;28;20105;-67
2021/06/26 05:24:16;;;;;;;41.67;20.95;;;;;;;;;;4972379;28;20019;-67
2021/06/26 05:26:42;;;;;;;27.25;18.75;;;;;;;;;;4987013;28;20030;-66
2021/06/26 05:29:08;;;;;;;32.10;19.05;;;;;;;;;;4978384;28;20026;-66
2021/06/26 05:31:34;;;;;;;32.35;18.90;;;;;;;;;;4979065;28;20717;-66
2021/06/26 05:34:00;;;;;;;35.83;20.95;;;;;;;;;;5032587;28;20144;-66
2021/06/26 05:36:27;;;;;;;45.42;21.08;;;;;;;;;;4986776;28;20129;-66
2021/06/26 05:38:53;;;;;;;30.02;19.20;;;;;;;;;;4977163;28;20382;-66
2021/06/26 05:41:19;;;;;;;28.42;18.75;;;;;;;;;;5002391;28;20041;-67
2021/06/26 05:43:45;;;;;;;26.20;17.63;;;;;;;;;;4987866;28;20453;-68
2021/06/26 05:46:11;;;;;;;31.35;19.38;;;;;;;;;;5000696;28;20046;-69
2021/06/26 05:48:37;;;;;;;26.45;17.88;;;;;;;;;;4970484;28;20041;-68
2021/06/26 05:51:04;;;;;;;25.88;18.10;;;;;;;;;;4983577;28;20025;-69
2021/06/26 05:53:31;;;;;;;25.92;17.25;;;;;;;;;;4979357;28;20109;-68
2021/06/26 05:55:57;;;;;;;26.92;18.65;;;;;;;;;;4993487;28;20026;-68
2021/06/26 05:58:28;;;;;;;30.73;18.85;;;;;;;;;;4983986;28;20088;-68
2021/06/26 06:00:54;;;;;;;27.17;17.80;;;;;;;;;;4979159;28;20076;-68
2021/06/26 06:03:21;;;;;;;26.60;17.50;;;;;;;;;;4988970;28;20493;-68
2021/06/26 06:05:47;;;;;;;34.05;18.33;;;;;;;;;;4987070;28;20038;-68
2021/06/26 06:08:14;;;;;;;25.88;15.85;;;;;;;;;;4988013;28;20478;-68
2021/06/26 06:10:40;;;;;;;29.17;18.05;;;;;;;;;;4988717;28;20513;-67
2021/06/26 06:13:11;;;;;;;26.73;17.70;;;;;;;;;;4988751;28;20110;-68
2021/06/26 06:15:37;;;;;;;28.58;18.73;;;;;;;;;;4985365;28;20046;-67
2021/06/26 06:18:03;;;;;;;25.20;17.08;;;;;;;;;;4994339;28;20072;-67
2021/06/26 06:20:29;;;;;;;25.52;15.73;;;;;;;;;;4996405;28;20018;-66
2021/06/26 06:22:56;;;;;;;23.65;15.52;;;;;;;;;;5011226;28;20026;-66
2021/06/26 06:25:22;;;;;;;27.92;16.08;;;;;;;;;;4987883;28;20030;-65
2021/06/26 06:27:48;;;;;;;24.90;16.30;;;;;;;;;;4986570;28;20026;-66
2021/06/26 06:30:14;;;;;;;20.63;14.02;;;;;;;;;;4984710;28;20027;-65
2021/06/26 06:32:40;;;;;;;22.55;14.15;;;;;;;;;;4983678;28;20038;-66
2021/06/26 06:35:06;;;;;;;21.48;14.00;;;;;;;;;;4989821;28;20027;-66
2021/06/26 06:37:32;;;;;;;21.58;12.45;;;;;;;;;;4982850;28;20100;-65
2021/06/26 06:39:59;;;;;;;17.05;13.23;;;;;;;;;;4986238;28;20068;-65
2021/06/26 06:42:25;;;;;;;22.23;14.10;;;;;;;;;;4985607;28;20026;-65
2021/06/26 06:44:51;;;;;;;19.77;14.68;;;;;;;;;;4990738;28;20266;-65
2021/06/26 06:47:17;;;;;;;18.33;13.93;;;;;;;;;;4988028;28;20409;-65
2021/06/26 06:49:43;;;;;;;21.40;14.98;;;;;;;;;;4980185;28;20105;-65
2021/06/26 06:52:09;;;;;;;19.65;14.30;;;;;;;;;;4984601;28;20105;-65
2021/06/26 06:54:35;;;;;;;21.15;14.65;;;;;;;;;;4988234;28;20490;-65
2021/06/26 06:57:01;;;;;;;17.33;14.15;;;;;;;;;;4980394;28;20118;-65
2021/06/26 06:59:27;;;;;;;20.23;13.07;;;;;;;;;;4990332;28;20413;-65
2021/06/26 07:01:53;;;;;;;17.00;12.02;;;;;;;;;;5009195;28;20022;-65
2021/06/26 07:04:19;;;;;;;17.02;11.98;;;;;;;;;;4980812;28;20023;-65
2021/06/26 07:06:45;;;;;;;18.20;11.70;;;;;;;;;;4987212;28;20027;-65
2021/06/26 07:09:11;;;;;;;14.63;11.57;;;;;;;;;;4976556;28;20030;-65
2021/06/26 07:11:37;;;;;;;14.35;11.35;;;;;;;;;;4982094;28;21264;-65
2021/06/26 07:14:03;;;;;;;14.90;10.63;;;;;;;;;;4986573;28;20477;-65
2021/06/26 07:16:29;;;;;;;16.27;10.20;;;;;;;;;;4986801;28;20038;-67
2021/06/26 07:18:55;;;;;;;10.45;8.23;;;;;;;;;;4990708;28;20031;-64
2021/06/26 07:21:21;;;;;;;17.10;9.48;;;;;;;;;;4987179;28;20031;-65
2021/06/26 07:23:47;;;;;;;12.82;8.75;;;;;;;;;;4997294;28;20023;-65
2021/06/26 07:26:13;;;;;;;10.52;9.07;;;;;;;;;;4990594;28;20026;-64
2021/06/26 07:28:39;;;;;;;11.43;9.18;;;;;;;;;;4996224;28;20043;-64
2021/06/26 07:31:05;;;;;;;11.98;7.85;;;;;;;;;;4986784;28;20027;-65
2021/06/26 07:33:32;;;;;;;12.35;8.30;;;;;;;;;;4986422;28;20065;-64
2021/06/26 07:35:58;;;;;;;10.20;7.35;;;;;;;;;;4984594;28;20621;-64
2021/06/26 07:38:24;;;;;;;9.35;7.30;;;;;;;;;;4989588;28;20026;-65
2021/06/26 07:40:51;;;;;;;7.53;6.45;;;;;;;;;;4987979;28;20027;-65
2021/06/26 07:43:17;;;;;;;8.50;6.63;;;;;;;;;;4986705;28;20147;-65
2021/06/26 07:45:43;;;;;;;9.35;6.80;;;;;;;;;;4982235;28;20069;-64
2021/06/26 07:48:09;;;;;;;8.65;7.35;;;;;;;;;;4970990;28;20049;-65
2021/06/26 07:50:35;;;;;;;10.27;8.32;;;;;;;;;;4976568;28;20068;-65
2021/06/26 07:53:01;;;;;;;10.13;7.20;;;;;;;;;;4976624;28;20033;-65
2021/06/26 07:55:29;;;;;;;10.95;7.15;;;;;;;;;;4996879;28;20066;-65
2021/06/26 07:57:55;;;;;;;8.68;6.63;;;;;;;;;;4989278;28;20026;-65
2021/06/26 08:00:21;;;;;;;8.40;5.88;;;;;;;;;;4989694;28;20072;-65
2021/06/26 08:02:47;;;;;;;7.88;6.22;;;;;;;;;;4984827;28;20034;-65
2021/06/26 08:05:13;;;;;;;8.98;6.80;;;;;;;;;;5010589;28;20481;-65
2021/06/26 08:07:39;;;;;;;10.13;7.63;;;;;;;;;;4988819;28;20491;-65
2021/06/26 08:10:06;;;;;;;15.98;10.15;;;;;;;;;;4987131;28;20478;-65
2021/06/26 08:12:33;;;;;;;10.68;9.65;;;;;;;;;;4985948;28;20429;-65
2021/06/26 08:15:01;;;;;;;12.25;11.15;;;;;;;;;;4987965;28;20035;-65
2021/06/26 08:17:27;;;;;;;12.98;11.68;;;;;;;;;;4990798;28;20057;-65
2021/06/26 08:19:53;;;;;;;14.73;13.35;;;;;;;;;;4988770;28;20062;-65
2021/06/26 08:22:19;;;;;;;12.93;11.82;;;;;;;;;;4986831;28;20026;-65
2021/06/26 08:24:45;;;;;;;12.85;11.73;;;;;;;;;;4984978;28;20031;-65
2021/06/26 08:27:11;;;;;;;13.32;12.10;;;;;;;;;;4985892;28;20037;-65
2021/06/26 08:29:37;;;;;;;14.73;13.32;;;;;;;;;;4983710;28;20440;-65
2021/06/26 08:32:04;;;;;;;17.73;16.08;;;;;;;;;;4983630;28;20114;-65
2021/06/26 08:34:30;;;;;;;16.98;15.57;;;;;;;;;;4987019;28;20451;-65
2021/06/26 08:36:56;;;;;;;14.93;13.73;;;;;;;;;;4988126;28;20477;-65
2021/06/26 08:39:22;;;;;;;13.95;12.75;;;;;;;;;;4983424;28;20018;-65
2021/06/26 08:41:49;;;;;;;16.95;15.43;;;;;;;;;;4983553;28;20119;-65
2021/06/26 08:44:17;;;;;;;17.35;15.95;;;;;;;;;;4984297;28;20019;-65
2021/06/26 08:46:45;;;;;;;16.58;15.18;;;;;;;;;;4992627;28;20030;-64
2021/06/26 08:49:11;;;;;;;17.48;15.95;;;;;;;;;;5026434;28;20037;-65
2021/06/26 08:51:37;;;;;;;18.73;17.10;;;;;;;;;;4987960;28;20296;-64
2021/06/26 08:54:04;;;;;;;20.55;18.83;;;;;;;;;;4986488;28;20026;-64
2021/06/26 08:56:30;;;;;;;18.90;17.33;;;;;;;;;;4991487;28;20133;-65
2021/06/26 08:58:56;;;;;;;17.83;16.02;;;;;;;;;;4989934;28;20034;-65
2021/06/26 09:01:22;;;;;;;17.30;15.82;;;;;;;;;;4986218;28;20497;-66
2021/06/26 09:03:48;;;;;;;15.10;13.70;;;;;;;;;;4988195;28;20692;-65
2021/06/26 09:06:14;;;;;;;17.70;16.00;;;;;;;;;;5004108;28;20554;-64
2021/06/26 09:08:50;;;;;;;18.55;16.13;;;;;;;;;;4981531;28;20022;-65
2021/06/26 09:11:19;;;;;;;17.80;16.40;;;;;;;;;;4988295;28;20034;-65
2021/06/26 09:13:45;;;;;;;17.92;15.93;;;;;;;;;;4982636;28;20054;-65
2021/06/26 09:16:12;;;;;;;14.80;13.20;;;;;;;;;;4981080;28;20129;-65
2021/06/26 09:18:40;;;;;;;14.23;12.82;;;;;;;;;;4987665;28;20027;-65
2021/06/26 09:21:17;;;;;;;14.82;13.32;;;;;;;;;;4988224;28;20026;-64
2021/06/26 09:23:43;;;;;;;13.30;10.82;;;;;;;;;;4987516;28;20029;-64
2021/06/26 09:26:11;;;;;;;14.73;13.23;;;;;;;;;;4986872;28;20050;-64
2021/06/26 09:28:37;;;;;;;11.90;10.65;;;;;;;;;;4986049;28;20030;-65
2021/06/26 09:31:04;;;;;;;14.60;13.20;;;;;;;;;;4986080;28;20603;-65
2021/06/26 09:33:31;;;;;;;16.05;12.27;;;;;;;;;;4987909;28;20106;-65
2021/06/26 09:36:03;;;;;;;14.15;12.85;;;;;;;;;;4987638;28;20042;-65
2021/06/26 09:38:31;;;;;;;15.48;14.13;;;;;;;;;;4977596;28;20048;-65
2021/06/26 09:40:57;;;;;;;18.70;17.20;;;;;;;;;;4983867;28;20071;-65
2021/06/26 09:43:25;;;;;;;16.63;15.20;;;;;;;;;;4984874;28;20018;-65
2021/06/26 09:45:51;;;;;;;13.40;12.10;;;;;;;;;;4986763;28;20275;-65
2021/06/26 09:48:17;;;;;;;12.30;11.13;;;;;;;;;;4987097;28;20118;-65
2021/06/26 09:50:43;;;;;;;14.88;13.68;;;;;;;;;;4987013;28;20110;-65
2021/06/26 09:53:09;;;;;;;14.98;13.68;;;;;;;;;;4985201;28;20035;-65
2021/06/26 09:55:37;;;;;;;12.50;11.30;;;;;;;;;;4997188;28;20034;-65
2021/06/26 09:58:03;;;;;;;13.48;12.13;;;;;;;;;;4987469;28;20088;-65
2021/06/26 10:00:30;;;;;;;14.07;11.10;;;;;;;;;;5008451;28;20020;-65
2021/06/26 10:02:57;;;;;;;14.10;12.68;;;;;;;;;;4986965;28;20023;-65
2021/06/26 10:05:23;;;;;;;17.95;9.85;;;;;;;;;;4996974;28;20045;-65
2021/06/26 10:07:52;;;;;;;9.93;8.82;;;;;;;;;;4985485;28;20562;-65
2021/06/26 10:10:22;;;;;;;10.15;9.15;;;;;;;;;;4987486;28;20026;-65
2021/06/26 10:12:49;;;;;;;13.57;10.95;;;;;;;;;;4982802;28;20056;-65
2021/06/26 10:15:15;;;;;;;11.43;10.32;;;;;;;;;;4987495;28;20497;-65
2021/06/26 10:17:41;;;;;;;12.52;11.32;;;;;;;;;;4988892;28;20030;-65
2021/06/26 10:20:09;;;;;;;9.90;8.45;;;;;;;;;;4987396;28;20030;-65
2021/06/26 10:22:36;;;;;;;10.70;9.10;;;;;;;;;;4984552;28;20027;-66
2021/06/26 10:25:03;;;;;;;12.60;11.30;;;;;;;;;;4984089;28;20034;-65
2021/06/26 10:27:29;;;;;;;11.23;10.13;;;;;;;;;;4985858;28;20079;-65
2021/06/26 10:29:55;;;;;;;14.52;11.02;;;;;;;;;;4988051;28;20075;-65
2021/06/26 10:32:21;;;;;;;11.60;10.45;;;;;;;;;;4984223;28;20037;-65
2021/06/26 10:34:48;;;;;;;12.40;11.15;;;;;;;;;;4986884;28;20062;-66
2021/06/26 10:37:18;;;;;;;11.18;9.85;;;;;;;;;;4986656;28;20039;-65
2021/06/26 10:39:44;;;;;;;11.80;10.40;;;;;;;;;;4986998;28;20397;-65
2021/06/26 10:42:12;;;;;;;13.05;11.75;;;;;;;;;;4990806;28;20030;-66
2021/06/26 10:44:49;;;;;;;10.88;9.57;;;;;;;;;;4985919;28;20034;-66
2021/06/26 10:47:16;;;;;;;9.60;8.70;;;;;;;;;;4984810;28;20023;-66
2021/06/26 10:49:42;;;;;;;7.32;6.53;;;;;;;;;;4991282;28;20034;-66
2021/06/26 10:52:10;;;;;;;10.80;9.68;;;;;;;;;;4975782;28;20042;-66
2021/06/26 10:54:36;;;;;;;10.95;9.85;;;;;;;;;;5000513;28;20033;-66
2021/06/26 10:57:07;;;;;;;10.70;9.13;;;;;;;;;;4990593;28;20014;-65
2021/06/26 10:59:34;;;;;;;11.98;10.77;;;;;;;;;;4999669;28;20041;-65
2021/06/26 11:02:02;;;;;;;12.18;11.00;;;;;;;;;;5034260;28;20167;-66
2021/06/26 11:04:28;;;;;;;11.25;9.38;;;;;;;;;;4990107;28;20404;-65
2021/06/26 11:07:08;;;;;;;13.43;12.13;;;;;;;;;;4987635;28;20026;-66
2021/06/26 11:09:45;;;;;;;11.38;9.60;;;;;;;;;;4988873;28;20101;-66
2021/06/26 11:12:12;;;;;;;7.03;5.50;;;;;;;;;;4982792;28;20080;-65
2021/06/26 11:14:47;;;;;;;9.48;7.90;;;;;;;;;;4986981;28;20026;-65
2021/06/26 11:17:13;;;;;;;10.63;8.77;;;;;;;;;;4987710;28;20525;-65
2021/06/26 11:19:39;;;;;;;7.22;5.43;;;;;;;;;;4990845;28;20033;-65
2021/06/26 11:22:05;;;;;;;7.00;5.22;;;;;;;;;;4986644;28;20486;-66
2021/06/26 11:24:45;;;;;;;8.13;6.10;;;;;;;;;;4989889;28;20026;-65
2021/06/26 11:27:14;;;;;;;7.28;5.43;;;;;;;;;;4989764;28;20050;-66
2021/06/26 11:29:45;;;;;;;6.45;5.07;;;;;;;;;;4987394;28;20087;-65
2021/06/26 11:32:22;;;;;;;4.88;3.70;;;;;;;;;;4987384;28;20038;-66
2021/06/26 11:34:55;;;;;;;7.40;4.78;;;;;;;;;;4989959;28;20042;-66
2021/06/26 11:37:22;;;;;;;8.70;5.05;;;;;;;;;;4989136;28;20042;-65
2021/06/26 11:39:48;;;;;;;8.63;4.90;;;;;;;;;;4990244;28;20029;-66
2021/06/26 11:42:15;;;;;;;6.55;4.57;;;;;;;;;;4987087;28;20018;-65
2021/06/26 11:44:41;;;;;;;8.50;3.85;;;;;;;;;;4990792;28;20027;-65
2021/06/26 11:47:08;;;;;;;6.50;3.92;;;;;;;;;;4989751;28;20510;-65
2021/06/26 11:49:36;;;;;;;4.47;3.10;;;;;;;;;;4990310;28;20030;-65
2021/06/26 11:52:02;;;;;;;8.63;4.55;;;;;;;;;;4985921;28;20022;-65
2021/06/26 11:54:28;;;;;;;5.53;4.05;;;;;;;;;;4995588;28;20022;-65
2021/06/26 11:56:54;;;;;;;6.25;3.50;;;;;;;;;;4987611;28;20101;-66
2021/06/26 11:59:22;;;;;;;5.70;3.45;;;;;;;;;;4991491;28;20034;-66
2021/06/26 12:01:50;;;;;;;4.82;3.58;;;;;;;;;;4983348;28;20562;-65
2021/06/26 12:04:26;;;;;;;4.85;3.22;;;;;;;;;;4989096;28;20018;-66
2021/06/26 12:06:52;;;;;;;4.32;2.75;;;;;;;;;;4987841;28;20068;-67
2021/06/26 12:09:23;;;;;;;6.30;3.60;;;;;;;;;;4988984;28;20058;-66
2021/06/26 12:11:49;;;;;;;4.97;3.00;;;;;;;;;;4989209;28;20054;-67
2021/06/26 12:14:15;;;;;;;15.75;4.03;;;;;;;;;;4990294;28;20538;-66
2021/06/26 12:16:42;;;;;;;5.90;3.38;;;;;;;;;;4988649;28;20058;-66
2021/06/26 12:19:09;;;;;;;5.90;2.95;;;;;;;;;;4981199;28;20091;-65
2021/06/26 12:21:44;;;;;;;6.35;2.80;;;;;;;;;;4987150;28;20333;-66
2021/06/26 12:24:10;;;;;;;9.20;3.65;;;;;;;;;;4984294;28;20283;-66
2021/06/26 12:26:36;;;;;;;8.32;3.08;;;;;;;;;;4989289;28;20029;-68
2021/06/26 12:29:02;;;;;;;4.90;2.60;;;;;;;;;;4989211;28;20128;-67
2021/06/26 12:31:29;;;;;;;6.07;3.20;;;;;;;;;;4986335;28;20118;-67
2021/06/26 12:34:08;;;;;;;6.47;3.17;;;;;;;;;;4989846;28;20034;-67
2021/06/26 12:36:34;;;;;;;5.32;3.00;;;;;;;;;;4988466;28;20039;-66
2021/06/26 12:39:01;;;;;;;6.05;3.47;;;;;;;;;;4981757;28;20042;-68
2021/06/26 12:41:28;;;;;;;5.78;3.80;;;;;;;;;;4982838;28;20014;-68
2021/06/26 12:43:55;;;;;;;5.35;3.47;;;;;;;;;;4984956;28;20030;-67
2021/06/26 12:46:23;;;;;;;5.25;3.80;;;;;;;;;;4988269;28;20053;-68
2021/06/26 12:48:52;;;;;;;5.00;2.95;;;;;;;;;;4988935;28;20030;-68
2021/06/26 12:51:20;;;;;;;6.18;3.72;;;;;;;;;;4978425;28;20030;-68
2021/06/26 12:53:52;;;;;;;5.20;1.30;;;;;;;;;;4991120;28;20117;-68
2021/06/26 12:56:28;;;;;;;3.83;2.20;;;;;;;;;;4991202;28;20035;-67
2021/06/26 12:58:54;;;;;;;4.38;2.40;;;;;;;;;;4987932;28;20526;-68
2021/06/26 13:01:21;;;;;;;3.67;1.90;;;;;;;;;;5023414;28;20397;-67
2021/06/26 13:03:56;;;;;;;4.32;2.20;;;;;;;;;;4987203;28;20026;-68
2021/06/26 13:06:23;;;;;;;6.70;3.20;;;;;;;;;;4972165;28;20673;-67
2021/06/26 13:08:50;;;;;;;4.07;2.33;;;;;;;;;;4988721;28;20038;-68
2021/06/26 13:11:27;;;;;;;6.85;3.42;;;;;;;;;;4988200;28;20034;-68
2021/06/26 13:13:53;;;;;;;7.15;3.35;;;;;;;;;;4988501;28;20034;-68
2021/06/26 13:16:19;;;;;;;4.47;2.67;;;;;;;;;;4988508;28;20071;-68
2021/06/26 13:18:45;;;;;;;5.03;2.67;;;;;;;;;;4988683;28;20037;-68
2021/06/26 13:21:14;;;;;;;5.80;2.53;;;;;;;;;;4988438;28;20034;-68
2021/06/26 13:23:41;;;;;;;5.78;2.85;;;;;;;;;;4985848;28;20030;-68
2021/06/26 13:26:07;;;;;;;5.35;3.10;;;;;;;;;;4986620;28;20050;-67
2021/06/26 13:28:33;;;;;;;6.40;2.92;;;;;;;;;;4988067;28;20566;-68
2021/06/26 13:30:59;;;;;;;5.38;2.70;;;;;;;;;;4988810;28;20535;-68
2021/06/26 13:33:25;;;;;;;5.78;3.58;;;;;;;;;;4985058;28;20401;-68
2021/06/26 13:35:52;;;;;;;5.25;2.63;;;;;;;;;;4988218;28;20469;-69
2021/06/26 13:38:18;;;;;;;6.70;3.60;;;;;;;;;;4987007;28;20293;-68
2021/06/26 13:40:49;;;;;;;5.10;2.65;;;;;;;;;;4988902;28;20022;-67
2021/06/26 13:43:16;;;;;;;7.00;2.70;;;;;;;;;;4984541;28;20042;-68
2021/06/26 13:45:42;;;;;;;5.40;2.70;;;;;;;;;;4988704;28;20039;-68
2021/06/26 13:48:08;;;;;;;6.28;2.40;;;;;;;;;;4986772;28;20521;-68
2021/06/26 13:50:34;;;;;;;5.70;2.50;;;;;;;;;;4988276;28;20034;-68
2021/06/26 13:53:00;;;;;;;5.50;2.97;;;;;;;;;;4985501;28;20022;-68
2021/06/26 13:55:26;;;;;;;6.80;3.58;;;;;;;;;;4995172;28;20026;-68
2021/06/26 13:57:52;;;;;;;7.53;3.17;;;;;;;;;;4988330;28;20027;-68
2021/06/26 14:00:20;;;;;;;9.70;4.22;;;;;;;;;;4989225;28;20090;-70
2021/06/26 14:02:46;;;;;;;8.48;5.15;;;;;;;;;;4985321;28;20660;-68
2021/06/26 14:05:12;;;;;;;9.40;4.60;;;;;;;;;;4973860;28;20066;-68
2021/06/26 14:07:38;;;;;;;11.90;4.70;;;;;;;;;;4985808;28;20080;-68
2021/06/26 14:10:05;;;;;;;10.45;4.25;;;;;;;;;;4987343;28;20039;-68
2021/06/26 14:12:31;;;;;;;9.60;4.30;;;;;;;;;;4983992;28;20022;-68
2021/06/26 14:14:57;;;;;;;10.07;4.47;;;;;;;;;;4986304;28;20028;-67
2021/06/26 14:17:23;;;;;;;8.70;4.53;;;;;;;;;;4988202;28;20360;-68
2021/06/26 14:19:49;;;;;;;10.18;5.72;;;;;;;;;;4985943;28;20026;-68
2021/06/26 14:22:15;;;;;;;8.80;4.93;;;;;;;;;;4985211;28;20027;-69